createdAt,value
2022-08-20T00:03:04.332Z,30.02
2022-08-20T00:06:11.320Z,29.93
2022-08-20T00:09:14.691Z,29.97
2022-08-20T00:12:19.479Z,30.12
2022-08-20T00:15:28.576Z,29.62
2022-08-20T00:18:32.100Z,29.73
2022-08-20T00:21:36.678Z,30.00
2022-08-20T00:24:39.999Z,30.01
2022-08-20T00:27:44.763Z,29.75
2022-08-20T00:30:49.626Z,29.64
2022-08-20T00:33:53.620Z,29.66
2022-08-20T00:36:57.051Z,29.69
2022-08-20T00:40:00.901Z,29.80
2022-08-20T00:43:08.317Z,29.62
2022-08-20T00:46:14.235Z,29.57
2022-08-20T00:49:22.239Z,29.48
2022-08-20T00:52:25.651Z,29.37
2022-08-20T00:55:31.647Z,29.22
2022-08-20T00:58:38.508Z,29.38
2022-08-20T01:01:55.192Z,29.51
2022-08-20T01:05:00.218Z,29.33
2022-08-20T01:08:04.640Z,29.37
2022-08-20T01:11:10.418Z,29.48
2022-08-20T01:14:31.811Z,29.14
2022-08-20T01:17:38.026Z,29.05
2022-08-20T01:20:44.399Z,28.92
2022-08-20T01:23:53.232Z,29.21
2022-08-20T01:26:58.352Z,29.27
2022-08-20T01:30:06.945Z,29.22
2022-08-20T01:33:10.754Z,29.12
2022-08-20T01:36:16.737Z,29.12
2022-08-20T01:39:24.000Z,28.92
2022-08-20T01:42:37.557Z,29.22
2022-08-20T01:45:57.238Z,29.04
2022-08-20T01:49:13.534Z,29.05
2022-08-20T01:52:26.170Z,28.51
2022-08-20T01:55:29.529Z,28.60
2022-08-20T01:58:37.028Z,28.51
2022-08-20T02:01:46.752Z,28.86
2022-08-20T02:04:50.408Z,28.95
2022-08-20T02:07:53.689Z,28.76
2022-08-20T02:10:57.372Z,28.91
2022-08-20T02:14:02.373Z,28.97
2022-08-20T02:17:10.050Z,29.12
2022-08-20T02:20:17.089Z,29.35
2022-08-20T02:23:20.808Z,29.05
2022-08-20T02:26:24.605Z,28.84
2022-08-20T02:29:29.435Z,28.80
2022-08-20T02:32:34.396Z,28.47
2022-08-20T02:35:38.872Z,28.54
2022-08-20T02:38:42.881Z,28.23
2022-08-20T02:41:46.799Z,28.34
2022-08-20T02:44:51.849Z,27.95
2022-08-20T02:47:56.904Z,27.85
2022-08-20T02:51:03.887Z,27.81
2022-08-20T02:54:07.365Z,27.72
2022-08-20T02:57:14.036Z,27.86
2022-08-20T03:00:22.853Z,27.91
2022-08-20T03:03:26.720Z,27.99
2022-08-20T03:06:30.648Z,27.97
2022-08-20T03:09:34.530Z,28.03
2022-08-20T03:12:38.507Z,28.18
2022-08-20T03:15:46.691Z,28.28
2022-08-20T03:18:52.067Z,27.97
2022-08-20T03:21:55.725Z,28.14
2022-08-20T03:24:59.130Z,27.90
2022-08-20T03:28:02.785Z,27.76
2022-08-20T03:31:07.634Z,28.00
2022-08-20T03:34:10.969Z,28.19
2022-08-20T03:37:14.469Z,28.21
2022-08-20T03:40:23.540Z,28.30
2022-08-20T03:43:26.916Z,28.41
2022-08-20T03:46:31.786Z,28.27
2022-08-20T03:49:35.727Z,28.09
2022-08-20T03:52:39.252Z,28.25
2022-08-20T03:55:45.345Z,28.32
2022-08-20T03:58:48.799Z,28.60
2022-08-20T04:01:54.847Z,28.70
2022-08-20T04:04:58.189Z,28.89
2022-08-20T04:08:03.127Z,29.21
2022-08-20T04:11:07.119Z,29.30
2022-08-20T04:14:11.682Z,28.75
2022-08-20T04:17:22.119Z,28.88
2022-08-20T04:20:26.522Z,28.91
2022-08-20T04:23:30.218Z,28.35
2022-08-20T04:26:37.357Z,28.91
2022-08-20T04:29:43.159Z,28.76
2022-08-20T04:32:48.983Z,28.52
2022-08-20T04:35:53.390Z,28.81
2022-08-20T04:38:56.919Z,28.57
2022-08-20T04:42:00.443Z,28.77
2022-08-20T04:45:03.868Z,28.75
2022-08-20T04:48:14.262Z,28.93
2022-08-20T04:51:18.902Z,29.21
2022-08-20T04:54:22.376Z,29.09
2022-08-20T04:57:26.657Z,29.46
2022-08-20T05:00:32.969Z,29.68
2022-08-20T05:03:39.099Z,29.69
2022-08-20T05:06:42.423Z,29.87
2022-08-20T05:09:46.579Z,29.67
2022-08-20T05:12:55.105Z,29.88
2022-08-20T05:16:01.415Z,30.06
2022-08-20T05:19:06.512Z,29.48
2022-08-20T05:22:10.115Z,29.82
2022-08-20T05:25:13.985Z,29.85
2022-08-20T05:28:20.516Z,29.49
2022-08-20T05:31:23.887Z,29.90
2022-08-20T05:34:37.460Z,30.58
2022-08-20T05:37:42.369Z,31.02
2022-08-20T05:40:46.814Z,31.11
2022-08-20T05:43:51.526Z,30.97
2022-08-20T05:46:55.003Z,31.37
2022-08-20T05:49:59.912Z,31.65
2022-08-20T05:53:03.321Z,31.64
2022-08-20T05:56:07.055Z,31.80
2022-08-20T05:59:12.630Z,31.99
2022-08-20T06:02:33.800Z,32.17
2022-08-20T06:05:38.607Z,32.09
2022-08-20T06:08:42.226Z,32.36
2022-08-20T06:11:45.535Z,32.37
2022-08-20T06:14:48.895Z,32.33
2022-08-20T06:17:58.189Z,32.44
2022-08-20T06:21:03.435Z,32.31
2022-08-20T06:24:07.963Z,32.30
2022-08-20T06:27:15.742Z,32.94
2022-08-20T06:30:19.099Z,32.45
2022-08-20T06:33:22.508Z,31.96
2022-08-20T06:36:27.489Z,32.49
2022-08-20T06:39:31.296Z,32.59
2022-08-20T06:42:34.680Z,32.82
2022-08-20T06:45:39.177Z,32.61
2022-08-20T06:48:43.492Z,32.88
2022-08-20T06:51:50.069Z,33.37
2022-08-20T06:54:55.491Z,33.46
2022-08-20T06:57:59.890Z,32.97
2022-08-20T07:01:09.395Z,33.32
2022-08-20T07:04:13.682Z,33.42
2022-08-20T07:07:20.696Z,33.46
2022-08-20T07:10:25.874Z,33.18
2022-08-20T07:13:29.494Z,33.68
2022-08-20T07:16:33.313Z,33.55
2022-08-20T07:19:37.932Z,33.94
2022-08-20T07:22:43.597Z,33.99
2022-08-20T07:25:48.656Z,34.17
2022-08-20T07:28:52.172Z,33.98
2022-08-20T07:32:12.658Z,34.15
2022-08-20T07:35:18.458Z,34.36
2022-08-20T07:38:26.698Z,34.87
2022-08-20T07:41:30.051Z,34.77
2022-08-20T07:44:33.514Z,34.89
2022-08-20T07:47:36.856Z,35.19
2022-08-20T07:50:42.997Z,35.19
2022-08-20T07:53:48.981Z,35.35
2022-08-20T07:56:52.881Z,35.60
2022-08-20T07:59:56.428Z,35.41
2022-08-20T08:03:00.240Z,35.72
2022-08-20T08:06:03.567Z,35.44
2022-08-20T08:09:11.048Z,35.21
2022-08-20T08:12:15.221Z,34.91
2022-08-20T08:15:22.736Z,35.01
2022-08-20T08:18:31.904Z,35.20
2022-08-20T08:21:35.798Z,34.33
2022-08-20T08:24:41.787Z,34.85
2022-08-20T08:28:01.066Z,35.48
2022-08-20T08:31:04.416Z,35.98
2022-08-20T08:34:07.769Z,35.77
2022-08-20T08:37:11.219Z,36.02
2022-08-20T08:40:16.034Z,35.26
2022-08-20T08:43:21.537Z,36.42
2022-08-20T08:46:27.977Z,36.35
2022-08-20T08:49:37.984Z,36.02
2022-08-20T08:52:42.259Z,35.89
2022-08-20T08:55:47.054Z,35.75
2022-08-20T08:58:50.457Z,36.13
2022-08-20T09:01:57.673Z,36.68
2022-08-20T09:05:04.321Z,36.77
2022-08-20T09:08:16.876Z,36.96
2022-08-20T09:11:25.001Z,37.00
2022-08-20T09:14:28.286Z,37.20
2022-08-20T09:17:31.905Z,36.86
2022-08-20T09:20:35.557Z,36.91
2022-08-20T09:23:39.384Z,36.96
2022-08-20T09:26:44.982Z,36.96
2022-08-20T09:29:49.358Z,37.22
2022-08-20T09:32:52.819Z,37.55
2022-08-20T09:35:56.212Z,37.24
2022-08-20T09:38:59.556Z,36.51
2022-08-20T09:42:14.936Z,36.82
2022-08-20T09:45:18.876Z,37.50
2022-08-20T09:48:22.138Z,37.35
2022-08-20T09:51:35.531Z,37.35
2022-08-20T09:54:46.471Z,37.46
2022-08-20T09:57:52.657Z,37.35
2022-08-20T10:00:56.045Z,37.75
2022-08-20T10:03:59.326Z,37.43
2022-08-20T10:07:02.758Z,37.65
2022-08-20T10:10:07.492Z,36.96
2022-08-20T10:13:13.243Z,37.30
2022-08-20T10:16:18.708Z,37.81
2022-08-20T10:19:21.997Z,37.88
2022-08-20T10:22:28.099Z,38.10
2022-08-20T10:25:31.675Z,38.03
2022-08-20T10:28:36.808Z,38.16
2022-08-20T10:31:40.179Z,38.38
2022-08-20T10:34:46.066Z,38.76
2022-08-20T10:37:49.488Z,37.81
2022-08-20T10:40:52.805Z,38.26
2022-08-20T10:43:57.542Z,38.17
2022-08-20T10:47:14.755Z,37.98
2022-08-20T10:50:20.203Z,38.30
2022-08-20T10:53:23.735Z,38.29
2022-08-20T10:56:27.275Z,38.63
2022-08-20T10:59:32.350Z,38.87
2022-08-20T11:02:35.747Z,39.04
2022-08-20T11:05:39.429Z,38.75
2022-08-20T11:08:42.750Z,38.90
2022-08-20T11:11:46.083Z,38.79
2022-08-20T11:14:52.334Z,38.78
2022-08-20T11:17:56.567Z,38.52
2022-08-20T11:21:00.677Z,38.52
2022-08-20T11:24:04.789Z,38.68
2022-08-20T11:27:08.889Z,38.48
2022-08-20T11:30:16.438Z,38.41
2022-08-20T11:33:19.833Z,38.49
2022-08-20T11:36:27.016Z,38.43
2022-08-20T11:39:30.349Z,38.45
2022-08-20T11:42:33.627Z,38.57
2022-08-20T11:45:38.394Z,38.61
2022-08-20T11:48:41.685Z,38.53
2022-08-20T11:51:49.602Z,38.62
2022-08-20T11:54:54.836Z,38.46
2022-08-20T11:57:59.666Z,38.18
2022-08-20T12:01:05.463Z,38.35
2022-08-20T12:04:08.870Z,38.27
2022-08-20T12:07:13.411Z,38.56
2022-08-20T12:10:17.224Z,38.55
2022-08-20T12:13:20.560Z,38.48
2022-08-20T12:16:28.302Z,38.82
2022-08-20T12:19:31.584Z,38.77
2022-08-20T12:22:35.050Z,38.94
2022-08-20T12:25:38.341Z,38.78
2022-08-20T12:28:41.697Z,38.83
2022-08-20T12:31:46.500Z,38.80
2022-08-20T12:34:50.678Z,38.74
2022-08-20T12:37:54.427Z,38.68
2022-08-20T12:40:57.756Z,37.85
2022-08-20T12:44:07.088Z,38.02
2022-08-20T12:47:20.302Z,37.79
2022-08-20T12:50:30.914Z,37.92
2022-08-20T12:53:34.813Z,38.28
2022-08-20T12:56:38.100Z,38.47
2022-08-20T12:59:41.488Z,38.59
2022-08-20T13:02:46.323Z,38.16
2022-08-20T13:05:50.372Z,38.44
2022-08-20T13:08:53.692Z,38.48
2022-08-20T13:11:57.135Z,38.61
2022-08-20T13:15:00.513Z,38.87
2022-08-20T13:18:07.153Z,38.35
2022-08-20T13:21:10.501Z,38.33
2022-08-20T13:24:13.814Z,38.54
2022-08-20T13:27:22.789Z,38.41
2022-08-20T13:30:26.749Z,38.58
2022-08-20T13:33:31.982Z,38.56
2022-08-20T13:36:35.831Z,38.28
2022-08-20T13:39:40.303Z,37.60
2022-08-20T13:42:43.727Z,37.72
2022-08-20T13:45:47.044Z,37.59
2022-08-20T13:48:51.814Z,37.64
2022-08-20T13:51:55.124Z,37.76
2022-08-20T13:54:58.370Z,38.25
2022-08-20T13:58:06.796Z,38.42
2022-08-20T14:01:10.112Z,38.43
2022-08-20T14:04:14.887Z,38.54
2022-08-20T14:07:20.989Z,38.59
2022-08-20T14:10:31.379Z,38.42
2022-08-20T14:13:34.915Z,38.49
2022-08-20T14:16:39.888Z,38.79
2022-08-20T14:19:45.410Z,38.60
2022-08-20T14:22:48.998Z,38.66
2022-08-20T14:25:52.279Z,38.60
2022-08-20T14:28:55.657Z,38.69
2022-08-20T14:31:58.948Z,38.67
2022-08-20T14:35:03.782Z,38.38
2022-08-20T14:38:07.488Z,38.42
2022-08-20T14:41:10.776Z,38.51
2022-08-20T14:44:14.077Z,38.70
2022-08-20T14:47:20.825Z,38.53
2022-08-20T14:50:29.071Z,38.37
2022-08-20T14:53:32.385Z,38.22
2022-08-20T14:56:35.696Z,38.20
2022-08-20T14:59:39.201Z,38.20
2022-08-20T15:02:42.580Z,38.25
2022-08-20T15:05:47.311Z,37.89
2022-08-20T15:08:53.649Z,37.83
2022-08-20T15:11:57.010Z,37.69
2022-08-20T15:15:13.386Z,37.52
2022-08-20T15:18:19.351Z,37.35
2022-08-20T15:21:24.045Z,36.99
2022-08-20T15:24:27.365Z,37.07
2022-08-20T15:27:30.643Z,36.92
2022-08-20T15:30:33.971Z,36.83
2022-08-20T15:33:37.467Z,36.84
2022-08-20T15:36:42.198Z,36.88
2022-08-20T15:39:46.553Z,36.72
2022-08-20T15:42:50.062Z,36.63
2022-08-20T15:45:53.492Z,36.61
2022-08-20T15:48:56.935Z,36.61
2022-08-20T15:52:01.768Z,36.61
2022-08-20T15:55:07.094Z,36.58
2022-08-20T15:58:19.606Z,36.60
2022-08-20T16:01:33.838Z,36.48
2022-08-20T16:05:01.522Z,36.38
2022-08-20T16:08:17.185Z,36.32
2022-08-20T16:11:42.855Z,35.98
2022-08-20T16:14:52.120Z,35.27
2022-08-20T16:18:04.183Z,35.07
2022-08-20T16:21:13.438Z,34.56
2022-08-20T16:24:20.015Z,33.90
2022-08-20T16:27:33.271Z,33.95
2022-08-20T16:30:42.124Z,33.57
2022-08-20T16:33:59.252Z,33.63
2022-08-20T16:37:11.572Z,33.67
2022-08-20T16:40:23.758Z,32.99
2022-08-20T16:43:33.508Z,32.54
2022-08-20T16:46:41.270Z,32.73
2022-08-20T16:49:50.357Z,32.54
2022-08-20T16:52:54.346Z,31.98
2022-08-20T16:55:59.074Z,31.84
2022-08-20T16:59:07.217Z,31.91
2022-08-20T17:02:12.429Z,31.71
2022-08-20T17:05:15.932Z,31.85
2022-08-20T17:08:29.930Z,31.65
2022-08-20T17:11:35.894Z,31.64
2022-08-20T17:14:50.073Z,31.48
2022-08-20T17:17:55.796Z,30.87
2022-08-20T17:21:03.672Z,30.68
2022-08-20T17:24:16.579Z,30.74
2022-08-20T17:27:37.777Z,30.97
2022-08-20T17:30:42.295Z,30.88
2022-08-20T17:33:46.640Z,30.79
2022-08-20T17:36:54.618Z,30.49
2022-08-20T17:40:10.624Z,30.65
2022-08-20T17:43:27.535Z,30.75
2022-08-20T17:46:43.938Z,30.70
2022-08-20T17:50:02.164Z,30.60
2022-08-20T17:53:14.777Z,30.54
2022-08-20T17:56:22.788Z,30.73
2022-08-20T17:59:47.697Z,30.80
2022-08-20T18:03:00.444Z,30.93
2022-08-20T18:06:09.502Z,30.67
2022-08-20T18:09:18.409Z,31.01
2022-08-20T18:12:34.227Z,30.83
2022-08-20T18:15:50.760Z,31.02
2022-08-20T18:18:58.674Z,31.09
2022-08-20T18:22:12.042Z,31.12
2022-08-20T18:25:26.405Z,30.97
2022-08-20T18:28:38.364Z,30.90
2022-08-20T18:31:48.756Z,30.67
2022-08-20T18:34:52.843Z,30.84
2022-08-20T18:37:56.155Z,30.66
2022-08-20T18:41:11.541Z,30.96
2022-08-20T18:44:16.954Z,30.54
2022-08-20T18:47:25.089Z,30.94
2022-08-20T18:50:42.942Z,30.43
2022-08-20T18:53:51.810Z,30.79
2022-08-20T18:57:05.524Z,30.78
2022-08-20T19:00:13.251Z,30.36
2022-08-20T19:03:22.744Z,30.14
2022-08-20T19:06:43.057Z,30.30
2022-08-20T19:10:03.000Z,30.42
2022-08-20T19:13:28.872Z,30.37
2022-08-20T19:16:38.271Z,30.58
2022-08-20T19:19:43.057Z,30.47
2022-08-20T19:22:48.054Z,30.12
2022-08-20T19:25:55.740Z,29.70
2022-08-20T19:29:01.976Z,29.48
2022-08-20T19:32:08.836Z,29.11
2022-08-20T19:35:18.907Z,28.74
2022-08-20T19:38:22.708Z,28.38
2022-08-20T19:41:31.451Z,28.50
2022-08-20T19:44:42.025Z,27.92
2022-08-20T19:47:58.565Z,28.09
2022-08-20T19:51:10.271Z,27.95
2022-08-20T19:54:21.012Z,27.38
2022-08-20T19:57:27.290Z,27.95
2022-08-20T20:00:39.168Z,27.75
2022-08-20T20:03:43.105Z,27.94
2022-08-20T20:06:50.089Z,27.41
2022-08-20T20:09:56.677Z,27.27
2022-08-20T20:13:06.866Z,27.52
2022-08-20T20:16:10.430Z,27.63
2022-08-20T20:19:26.447Z,27.79
2022-08-20T20:22:34.346Z,27.43
2022-08-20T20:25:41.512Z,27.41
2022-08-20T20:28:47.371Z,27.42
2022-08-20T20:31:53.967Z,27.51
2022-08-20T20:35:00.061Z,27.86
2022-08-20T20:38:08.126Z,28.01
2022-08-20T20:41:21.667Z,27.32
2022-08-20T20:44:28.332Z,27.52
2022-08-20T20:47:35.965Z,27.42
2022-08-20T20:50:40.158Z,27.51
2022-08-20T20:53:54.867Z,27.02
2022-08-20T20:57:04.064Z,26.78
2022-08-20T21:00:12.725Z,26.52
2022-08-20T21:03:16.092Z,26.09
2022-08-20T21:06:20.988Z,25.83
2022-08-20T21:09:27.586Z,25.61
2022-08-20T21:12:31.024Z,25.27
2022-08-20T21:15:35.239Z,25.14
2022-08-20T21:18:38.715Z,25.18
2022-08-20T21:21:43.851Z,25.13
2022-08-20T21:24:51.533Z,24.48
2022-08-20T21:27:55.099Z,24.60
2022-08-20T21:30:58.650Z,24.62
2022-08-20T21:34:02.207Z,24.30
2022-08-20T21:37:05.522Z,24.48
2022-08-20T21:40:12.173Z,24.20
2022-08-20T21:43:15.706Z,24.06
2022-08-20T21:46:25.013Z,24.07
2022-08-20T21:49:30.407Z,23.84
2022-08-20T21:52:35.447Z,24.09
2022-08-20T21:55:41.404Z,24.60
2022-08-20T21:58:47.517Z,24.83
2022-08-20T22:01:51.218Z,25.48
2022-08-20T22:04:54.586Z,25.53
2022-08-20T22:07:57.884Z,25.38
2022-08-20T22:11:03.309Z,25.30
2022-08-20T22:14:09.484Z,24.94
2022-08-20T22:17:12.920Z,24.28
2022-08-20T22:20:16.232Z,24.47
2022-08-20T22:23:19.686Z,24.50
2022-08-20T22:26:27.301Z,24.84
2022-08-20T22:29:30.763Z,24.92
2022-08-20T22:32:46.871Z,24.96
2022-08-20T22:35:57.855Z,24.68
2022-08-20T22:39:01.447Z,24.49
2022-08-20T22:42:06.411Z,24.45
2022-08-20T22:45:14.511Z,24.77
2022-08-20T22:48:20.826Z,24.92
2022-08-20T22:51:30.407Z,25.21
2022-08-20T22:54:35.020Z,25.04
2022-08-20T22:57:40.110Z,24.99
2022-08-20T23:00:45.921Z,25.06
2022-08-20T23:03:49.291Z,25.04
2022-08-20T23:06:52.823Z,25.06
2022-08-20T23:09:56.144Z,25.17
2022-08-20T23:13:01.024Z,25.06
2022-08-20T23:16:05.221Z,24.53
2022-08-20T23:19:10.653Z,24.44
2022-08-20T23:22:14.252Z,24.53
2022-08-20T23:25:17.617Z,25.12
2022-08-20T23:28:25.124Z,25.46
2022-08-20T23:31:28.417Z,25.18
2022-08-20T23:34:31.865Z,25.49
2022-08-20T23:37:38.892Z,25.79
2022-08-20T23:40:42.718Z,25.55
2022-08-20T23:43:47.448Z,25.10
2022-08-20T23:46:50.993Z,24.98
2022-08-20T23:49:58.094Z,25.36
2022-08-20T23:53:01.367Z,25.76
2022-08-20T23:56:05.545Z,25.98
2022-08-20T23:59:10.228Z,26.03
